sensor_id;sensor_type;location;lat;lon;timestamp;P1;durP1;ratioP1;P2;durP2;ratioP2
51838;SDS011;37886;53.174;6.368;2023-05-25T00:01:08;34.47;;;27.83;;
51838;SDS011;37886;53.174;6.368;2023-05-25T00:03:33;29.42;;;21.70;;
51838;SDS011;37886;53.174;6.368;2023-05-25T00:06:00;23.73;;;19.52;;
51838;SDS011;37886;53.174;6.368;2023-05-25T00:08:26;43.38;;;27.50;;
51838;SDS011;37886;53.174;6.368;2023-05-25T00:10:52;34.78;;;31.40;;
51838;SDS011;37886;53.174;6.368;2023-05-25T00:13:18;41.70;;;37.25;;
51838;SDS011;37886;53.174;6.368;2023-05-25T00:15:43;40.75;;;36.83;;
51838;SDS011;37886;53.174;6.368;2023-05-25T00:18:09;41.53;;;37.58;;
51838;SDS011;37886;53.174;6.368;2023-05-25T00:20:35;46.25;;;41.90;;
51838;SDS011;37886;53.174;6.368;2023-05-25T00:23:01;46.00;;;41.47;;
51838;SDS011;37886;53.174;6.368;2023-05-25T00:25:27;42.47;;;38.13;;
51838;SDS011;37886;53.174;6.368;2023-05-25T00:27:53;46.35;;;42.17;;
51838;SDS011;37886;53.174;6.368;2023-05-25T00:30:19;42.17;;;37.70;;
51838;SDS011;37886;53.174;6.368;2023-05-25T00:32:44;29.85;;;26.95;;
51838;SDS011;37886;53.174;6.368;2023-05-25T00:35:11;37.90;;;33.85;;
51838;SDS011;37886;53.174;6.368;2023-05-25T00:37:37;38.83;;;35.28;;
51838;SDS011;37886;53.174;6.368;2023-05-25T00:40:03;41.63;;;37.20;;
51838;SDS011;37886;53.174;6.368;2023-05-25T00:42:32;38.22;;;34.75;;
51838;SDS011;37886;53.174;6.368;2023-05-25T00:44:59;31.95;;;28.65;;
51838;SDS011;37886;53.174;6.368;2023-05-25T00:47:26;32.08;;;26.40;;
51838;SDS011;37886;53.174;6.368;2023-05-25T00:49:51;26.25;;;23.67;;
51838;SDS011;37886;53.174;6.368;2023-05-25T00:52:17;34.85;;;31.40;;
51838;SDS011;37886;53.174;6.368;2023-05-25T00:57:46;30.77;;;27.98;;
51838;SDS011;37886;53.174;6.368;2023-05-25T01:00:16;31.05;;;27.15;;
51838;SDS011;37886;53.174;6.368;2023-05-25T01:02:42;40.15;;;35.72;;
51838;SDS011;37886;53.174;6.368;2023-05-25T01:05:09;40.78;;;35.28;;
51838;SDS011;37886;53.174;6.368;2023-05-25T01:07:37;36.38;;;32.78;;
51838;SDS011;37886;53.174;6.368;2023-05-25T01:10:06;37.55;;;33.45;;
51838;SDS011;37886;53.174;6.368;2023-05-25T01:12:36;38.08;;;27.60;;
51838;SDS011;37886;53.174;6.368;2023-05-25T01:15:04;31.30;;;28.17;;
51838;SDS011;37886;53.174;6.368;2023-05-25T01:17:31;35.60;;;31.95;;
51838;SDS011;37886;53.174;6.368;2023-05-25T01:19:57;30.67;;;25.88;;
51838;SDS011;37886;53.174;6.368;2023-05-25T01:25:32;32.58;;;20.95;;
51838;SDS011;37886;53.174;6.368;2023-05-25T01:30:47;33.55;;;23.40;;
51838;SDS011;37886;53.174;6.368;2023-05-25T01:33:14;30.40;;;25.80;;
51838;SDS011;37886;53.174;6.368;2023-05-25T01:35:45;36.63;;;27.15;;
51838;SDS011;37886;53.174;6.368;2023-05-25T01:38:11;33.75;;;27.58;;
51838;SDS011;37886;53.174;6.368;2023-05-25T01:40:37;31.65;;;28.40;;
51838;SDS011;37886;53.174;6.368;2023-05-25T01:43:03;33.08;;;28.63;;
51838;SDS011;37886;53.174;6.368;2023-05-25T01:45:29;35.38;;;31.63;;
51838;SDS011;37886;53.174;6.368;2023-05-25T01:53:33;31.52;;;27.77;;
51838;SDS011;37886;53.174;6.368;2023-05-25T01:56:02;32.60;;;27.42;;
51838;SDS011;37886;53.174;6.368;2023-05-25T01:58:37;34.60;;;28.90;;
51838;SDS011;37886;53.174;6.368;2023-05-25T02:01:06;34.50;;;26.98;;
51838;SDS011;37886;53.174;6.368;2023-05-25T02:03:33;33.17;;;21.75;;
51838;SDS011;37886;53.174;6.368;2023-05-25T02:05:59;30.60;;;19.08;;
51838;SDS011;37886;53.174;6.368;2023-05-25T02:08:25;44.60;;;20.65;;
51838;SDS011;37886;53.174;6.368;2023-05-25T02:10:51;32.63;;;19.60;;
51838;SDS011;37886;53.174;6.368;2023-05-25T02:13:17;36.28;;;22.73;;
51838;SDS011;37886;53.174;6.368;2023-05-25T02:15:42;33.95;;;20.52;;
51838;SDS011;37886;53.174;6.368;2023-05-25T02:18:08;33.35;;;25.92;;
51838;SDS011;37886;53.174;6.368;2023-05-25T02:20:35;41.03;;;28.00;;
51838;SDS011;37886;53.174;6.368;2023-05-25T02:23:01;35.45;;;24.15;;
51838;SDS011;37886;53.174;6.368;2023-05-25T02:25:27;35.03;;;23.63;;
51838;SDS011;37886;53.174;6.368;2023-05-25T02:27:52;35.38;;;25.20;;
51838;SDS011;37886;53.174;6.368;2023-05-25T02:30:18;31.00;;;26.17;;
51838;SDS011;37886;53.174;6.368;2023-05-25T02:32:44;35.20;;;25.50;;
51838;SDS011;37886;53.174;6.368;2023-05-25T02:35:10;31.77;;;26.08;;
51838;SDS011;37886;53.174;6.368;2023-05-25T02:37:36;35.50;;;28.10;;
51838;SDS011;37886;53.174;6.368;2023-05-25T02:40:02;32.08;;;28.25;;
51838;SDS011;37886;53.174;6.368;2023-05-25T02:42:29;38.20;;;30.35;;
51838;SDS011;37886;53.174;6.368;2023-05-25T02:44:54;28.77;;;25.70;;
51838;SDS011;37886;53.174;6.368;2023-05-25T02:47:20;29.60;;;26.48;;
51838;SDS011;37886;53.174;6.368;2023-05-25T02:49:46;31.50;;;27.33;;
51838;SDS011;37886;53.174;6.368;2023-05-25T02:52:12;37.03;;;26.40;;
51838;SDS011;37886;53.174;6.368;2023-05-25T02:54:38;28.70;;;23.67;;
51838;SDS011;37886;53.174;6.368;2023-05-25T02:57:04;32.10;;;24.27;;
51838;SDS011;37886;53.174;6.368;2023-05-25T02:59:30;33.22;;;23.95;;
51838;SDS011;37886;53.174;6.368;2023-05-25T03:01:56;30.77;;;24.77;;
51838;SDS011;37886;53.174;6.368;2023-05-25T03:04:22;28.42;;;23.85;;
51838;SDS011;37886;53.174;6.368;2023-05-25T03:06:48;31.02;;;23.10;;
51838;SDS011;37886;53.174;6.368;2023-05-25T03:09:14;35.83;;;25.58;;
51838;SDS011;37886;53.174;6.368;2023-05-25T03:11:40;27.65;;;24.35;;
51838;SDS011;37886;53.174;6.368;2023-05-25T03:14:05;27.95;;;24.15;;
51838;SDS011;37886;53.174;6.368;2023-05-25T03:16:31;29.77;;;23.38;;
51838;SDS011;37886;53.174;6.368;2023-05-25T03:19:00;25.98;;;22.67;;
51838;SDS011;37886;53.174;6.368;2023-05-25T03:21:27;31.95;;;23.63;;
51838;SDS011;37886;53.174;6.368;2023-05-25T03:23:52;29.52;;;23.50;;
51838;SDS011;37886;53.174;6.368;2023-05-25T03:26:18;38.88;;;24.40;;
51838;SDS011;37886;53.174;6.368;2023-05-25T03:28:44;28.50;;;24.63;;
51838;SDS011;37886;53.174;6.368;2023-05-25T03:31:09;37.90;;;25.35;;
51838;SDS011;37886;53.174;6.368;2023-05-25T03:33:36;30.75;;;23.75;;
51838;SDS011;37886;53.174;6.368;2023-05-25T03:36:06;33.33;;;23.95;;
51838;SDS011;37886;53.174;6.368;2023-05-25T03:38:33;33.03;;;22.80;;
51838;SDS011;37886;53.174;6.368;2023-05-25T03:41:00;42.33;;;22.95;;
51838;SDS011;37886;53.174;6.368;2023-05-25T03:43:25;42.30;;;22.10;;
51838;SDS011;37886;53.174;6.368;2023-05-25T03:45:51;37.22;;;21.20;;
51838;SDS011;37886;53.174;6.368;2023-05-25T03:48:17;37.17;;;23.50;;
51838;SDS011;37886;53.174;6.368;2023-05-25T03:50:42;36.17;;;21.98;;
51838;SDS011;37886;53.174;6.368;2023-05-25T03:53:08;31.38;;;21.80;;
51838;SDS011;37886;53.174;6.368;2023-05-25T03:55:34;35.40;;;22.30;;
51838;SDS011;37886;53.174;6.368;2023-05-25T03:58:00;42.15;;;22.45;;
51838;SDS011;37886;53.174;6.368;2023-05-25T04:00:25;35.83;;;23.33;;
51838;SDS011;37886;53.174;6.368;2023-05-25T04:02:51;45.40;;;27.33;;
51838;SDS011;37886;53.174;6.368;2023-05-25T04:05:17;45.75;;;28.00;;
51838;SDS011;37886;53.174;6.368;2023-05-25T04:07:43;40.13;;;27.73;;
51838;SDS011;37886;53.174;6.368;2023-05-25T04:10:10;46.97;;;28.05;;
51838;SDS011;37886;53.174;6.368;2023-05-25T04:12:36;48.42;;;28.75;;
51838;SDS011;37886;53.174;6.368;2023-05-25T04:15:02;41.97;;;29.05;;
51838;SDS011;37886;53.174;6.368;2023-05-25T04:17:29;47.75;;;29.15;;
51838;SDS011;37886;53.174;6.368;2023-05-25T04:19:55;46.45;;;31.15;;
51838;SDS011;37886;53.174;6.368;2023-05-25T04:22:21;52.65;;;32.35;;
51838;SDS011;37886;53.174;6.368;2023-05-25T04:24:47;41.83;;;29.17;;
51838;SDS011;37886;53.174;6.368;2023-05-25T04:27:13;47.05;;;35.80;;
51838;SDS011;37886;53.174;6.368;2023-05-25T04:29:40;41.63;;;32.38;;
51838;SDS011;37886;53.174;6.368;2023-05-25T04:32:05;45.78;;;35.40;;
51838;SDS011;37886;53.174;6.368;2023-05-25T04:34:33;51.10;;;42.15;;
51838;SDS011;37886;53.174;6.368;2023-05-25T04:37:00;62.28;;;52.03;;
51838;SDS011;37886;53.174;6.368;2023-05-25T04:39:29;64.10;;;57.55;;
51838;SDS011;37886;53.174;6.368;2023-05-25T04:41:56;89.50;;;81.07;;
51838;SDS011;37886;53.174;6.368;2023-05-25T04:44:22;58.33;;;49.25;;
51838;SDS011;37886;53.174;6.368;2023-05-25T04:46:49;55.28;;;42.17;;
51838;SDS011;37886;53.174;6.368;2023-05-25T04:49:16;87.00;;;79.15;;
51838;SDS011;37886;53.174;6.368;2023-05-25T04:51:43;73.07;;;66.05;;
51838;SDS011;37886;53.174;6.368;2023-05-25T04:54:08;74.13;;;66.45;;
51838;SDS011;37886;53.174;6.368;2023-05-25T04:56:34;85.13;;;76.40;;
51838;SDS011;37886;53.174;6.368;2023-05-25T04:59:00;145.18;;;132.70;;
51838;SDS011;37886;53.174;6.368;2023-05-25T05:01:26;82.47;;;74.18;;
51838;SDS011;37886;53.174;6.368;2023-05-25T05:03:53;102.68;;;93.53;;
51838;SDS011;37886;53.174;6.368;2023-05-25T05:06:18;83.35;;;75.55;;
51838;SDS011;37886;53.174;6.368;2023-05-25T05:08:45;93.75;;;85.18;;
51838;SDS011;37886;53.174;6.368;2023-05-25T05:11:11;95.55;;;86.28;;
51838;SDS011;37886;53.174;6.368;2023-05-25T05:13:37;112.32;;;102.00;;
51838;SDS011;37886;53.174;6.368;2023-05-25T05:16:02;113.90;;;104.30;;
51838;SDS011;37886;53.174;6.368;2023-05-25T05:18:28;150.35;;;137.80;;
51838;SDS011;37886;53.174;6.368;2023-05-25T05:20:54;164.27;;;151.02;;
51838;SDS011;37886;53.174;6.368;2023-05-25T05:23:19;152.20;;;139.38;;
51838;SDS011;37886;53.174;6.368;2023-05-25T05:25:45;158.73;;;146.15;;
51838;SDS011;37886;53.174;6.368;2023-05-25T05:28:11;142.60;;;130.40;;
51838;SDS011;37886;53.174;6.368;2023-05-25T05:30:36;169.70;;;155.05;;
51838;SDS011;37886;53.174;6.368;2023-05-25T05:33:02;177.02;;;162.30;;
51838;SDS011;37886;53.174;6.368;2023-05-25T05:35:28;282.77;;;259.08;;
51838;SDS011;37886;53.174;6.368;2023-05-25T05:37:53;259.70;;;237.88;;
51838;SDS011;37886;53.174;6.368;2023-05-25T05:40:19;255.07;;;234.20;;
51838;SDS011;37886;53.174;6.368;2023-05-25T05:42:45;213.57;;;196.82;;
51838;SDS011;37886;53.174;6.368;2023-05-25T05:45:11;197.00;;;181.55;;
51838;SDS011;37886;53.174;6.368;2023-05-25T05:47:37;220.23;;;203.60;;
51838;SDS011;37886;53.174;6.368;2023-05-25T05:50:02;305.58;;;281.02;;
51838;SDS011;37886;53.174;6.368;2023-05-25T05:52:29;216.32;;;199.38;;
51838;SDS011;37886;53.174;6.368;2023-05-25T05:54:54;283.58;;;260.58;;
51838;SDS011;37886;53.174;6.368;2023-05-25T05:57:20;245.95;;;226.40;;
51838;SDS011;37886;53.174;6.368;2023-05-25T05:59:46;309.17;;;283.42;;
51838;SDS011;37886;53.174;6.368;2023-05-25T06:02:12;270.80;;;249.23;;
51838;SDS011;37886;53.174;6.368;2023-05-25T06:04:37;252.65;;;231.73;;
51838;SDS011;37886;53.174;6.368;2023-05-25T06:07:04;361.55;;;331.77;;
51838;SDS011;37886;53.174;6.368;2023-05-25T06:09:29;316.48;;;290.95;;
51838;SDS011;37886;53.174;6.368;2023-05-25T06:11:55;379.40;;;348.55;;
51838;SDS011;37886;53.174;6.368;2023-05-25T06:14:21;384.13;;;353.42;;
51838;SDS011;37886;53.174;6.368;2023-05-25T06:16:47;346.60;;;319.35;;
51838;SDS011;37886;53.174;6.368;2023-05-25T06:19:12;525.63;;;484.67;;
51838;SDS011;37886;53.174;6.368;2023-05-25T06:21:38;417.92;;;386.08;;
51838;SDS011;37886;53.174;6.368;2023-05-25T06:24:04;435.63;;;402.52;;
51838;SDS011;37886;53.174;6.368;2023-05-25T06:26:30;462.95;;;427.20;;
51838;SDS011;37886;53.174;6.368;2023-05-25T06:28:56;497.15;;;458.83;;
51838;SDS011;37886;53.174;6.368;2023-05-25T06:31:22;542.00;;;500.27;;
51838;SDS011;37886;53.174;6.368;2023-05-25T06:33:47;487.80;;;450.40;;
51838;SDS011;37886;53.174;6.368;2023-05-25T06:36:13;450.63;;;414.48;;
51838;SDS011;37886;53.174;6.368;2023-05-25T06:38:39;407.45;;;373.88;;
51838;SDS011;37886;53.174;6.368;2023-05-25T06:41:05;458.35;;;421.08;;
51838;SDS011;37886;53.174;6.368;2023-05-25T06:43:31;481.95;;;444.58;;
51838;SDS011;37886;53.174;6.368;2023-05-25T06:45:57;388.40;;;355.05;;
51838;SDS011;37886;53.174;6.368;2023-05-25T06:48:23;478.63;;;441.05;;
51838;SDS011;37886;53.174;6.368;2023-05-25T06:50:49;491.40;;;453.75;;
51838;SDS011;37886;53.174;6.368;2023-05-25T06:53:14;492.40;;;456.25;;
51838;SDS011;37886;53.174;6.368;2023-05-25T06:55:41;491.10;;;453.80;;
51838;SDS011;37886;53.174;6.368;2023-05-25T06:58:07;451.85;;;418.05;;
51838;SDS011;37886;53.174;6.368;2023-05-25T07:00:33;423.08;;;390.83;;
51838;SDS011;37886;53.174;6.368;2023-05-25T07:02:58;443.00;;;411.67;;
51838;SDS011;37886;53.174;6.368;2023-05-25T07:05:25;406.05;;;377.38;;
51838;SDS011;37886;53.174;6.368;2023-05-25T07:07:51;487.52;;;453.15;;
51838;SDS011;37886;53.174;6.368;2023-05-25T07:10:16;473.35;;;439.42;;
51838;SDS011;37886;53.174;6.368;2023-05-25T07:12:42;404.73;;;375.23;;
51838;SDS011;37886;53.174;6.368;2023-05-25T07:15:08;428.23;;;397.83;;
51838;SDS011;37886;53.174;6.368;2023-05-25T07:17:35;457.17;;;423.98;;
51838;SDS011;37886;53.174;6.368;2023-05-25T07:20:01;441.85;;;410.85;;
51838;SDS011;37886;53.174;6.368;2023-05-25T07:22:28;428.52;;;398.85;;
51838;SDS011;37886;53.174;6.368;2023-05-25T07:24:53;434.15;;;402.73;;
51838;SDS011;37886;53.174;6.368;2023-05-25T07:27:19;420.83;;;390.02;;
51838;SDS011;37886;53.174;6.368;2023-05-25T07:29:45;465.60;;;431.98;;
51838;SDS011;37886;53.174;6.368;2023-05-25T07:32:10;470.27;;;436.27;;
51838;SDS011;37886;53.174;6.368;2023-05-25T07:34:36;424.58;;;394.15;;
51838;SDS011;37886;53.174;6.368;2023-05-25T07:37:02;407.38;;;378.40;;
51838;SDS011;37886;53.174;6.368;2023-05-25T07:39:28;413.25;;;384.30;;
51838;SDS011;37886;53.174;6.368;2023-05-25T07:41:53;424.85;;;395.05;;
51838;SDS011;37886;53.174;6.368;2023-05-25T07:44:19;432.13;;;401.33;;
51838;SDS011;37886;53.174;6.368;2023-05-25T07:46:45;398.45;;;369.33;;
51838;SDS011;37886;53.174;6.368;2023-05-25T07:49:10;397.92;;;368.70;;
51838;SDS011;37886;53.174;6.368;2023-05-25T07:51:40;372.40;;;345.77;;
51838;SDS011;37886;53.174;6.368;2023-05-25T07:54:07;402.00;;;370.92;;
51838;SDS011;37886;53.174;6.368;2023-05-25T07:56:32;354.98;;;330.23;;
51838;SDS011;37886;53.174;6.368;2023-05-25T07:58:58;343.77;;;319.42;;
51838;SDS011;37886;53.174;6.368;2023-05-25T08:01:25;343.38;;;318.67;;
51838;SDS011;37886;53.174;6.368;2023-05-25T08:03:51;323.63;;;300.90;;
51838;SDS011;37886;53.174;6.368;2023-05-25T08:06:16;305.88;;;283.77;;
51838;SDS011;37886;53.174;6.368;2023-05-25T08:08:42;314.25;;;292.30;;
51838;SDS011;37886;53.174;6.368;2023-05-25T08:11:09;314.35;;;291.92;;
51838;SDS011;37886;53.174;6.368;2023-05-25T08:13:35;316.95;;;293.73;;
51838;SDS011;37886;53.174;6.368;2023-05-25T08:16:01;334.20;;;310.50;;
51838;SDS011;37886;53.174;6.368;2023-05-25T08:18:27;319.20;;;296.20;;
51838;SDS011;37886;53.174;6.368;2023-05-25T08:20:53;313.08;;;291.63;;
51838;SDS011;37886;53.174;6.368;2023-05-25T08:23:18;289.63;;;269.33;;
51838;SDS011;37886;53.174;6.368;2023-05-25T08:25:44;265.52;;;246.73;;
51838;SDS011;37886;53.174;6.368;2023-05-25T08:28:10;268.10;;;247.95;;
51838;SDS011;37886;53.174;6.368;2023-05-25T08:30:36;212.82;;;196.50;;
51838;SDS011;37886;53.174;6.368;2023-05-25T08:33:01;250.23;;;231.90;;
51838;SDS011;37886;53.174;6.368;2023-05-25T08:35:27;254.10;;;235.55;;
51838;SDS011;37886;53.174;6.368;2023-05-25T08:37:53;268.92;;;249.68;;
51838;SDS011;37886;53.174;6.368;2023-05-25T08:40:20;230.10;;;211.82;;
51838;SDS011;37886;53.174;6.368;2023-05-25T08:42:50;254.93;;;235.27;;
51838;SDS011;37886;53.174;6.368;2023-05-25T08:45:16;233.98;;;215.77;;
51838;SDS011;37886;53.174;6.368;2023-05-25T08:47:42;255.60;;;236.38;;
51838;SDS011;37886;53.174;6.368;2023-05-25T08:50:09;258.60;;;238.38;;
51838;SDS011;37886;53.174;6.368;2023-05-25T08:52:39;262.73;;;241.75;;
51838;SDS011;37886;53.174;6.368;2023-05-25T08:55:09;241.48;;;222.85;;
51838;SDS011;37886;53.174;6.368;2023-05-25T08:57:44;245.38;;;225.85;;
51838;SDS011;37886;53.174;6.368;2023-05-25T09:00:10;245.10;;;225.70;;
51838;SDS011;37886;53.174;6.368;2023-05-25T09:05:31;240.80;;;222.70;;
51838;SDS011;37886;53.174;6.368;2023-05-25T09:08:04;225.82;;;208.50;;
51838;SDS011;37886;53.174;6.368;2023-05-25T09:10:31;274.53;;;253.83;;
51838;SDS011;37886;53.174;6.368;2023-05-25T09:12:59;202.40;;;185.93;;
51838;SDS011;37886;53.174;6.368;2023-05-25T09:15:26;274.33;;;253.57;;
51838;SDS011;37886;53.174;6.368;2023-05-25T09:17:52;213.20;;;196.82;;
51838;SDS011;37886;53.174;6.368;2023-05-25T09:20:18;235.98;;;219.23;;
51838;SDS011;37886;53.174;6.368;2023-05-25T09:22:46;229.50;;;213.50;;
51838;SDS011;37886;53.174;6.368;2023-05-25T09:25:14;207.07;;;192.13;;
51838;SDS011;37886;53.174;6.368;2023-05-25T09:27:44;188.93;;;175.05;;
51838;SDS011;37886;53.174;6.368;2023-05-25T09:30:10;194.00;;;179.15;;
51838;SDS011;37886;53.174;6.368;2023-05-25T09:32:37;181.60;;;167.60;;
51838;SDS011;37886;53.174;6.368;2023-05-25T09:35:09;171.02;;;158.95;;
51838;SDS011;37886;53.174;6.368;2023-05-25T09:37:36;162.75;;;150.23;;
51838;SDS011;37886;53.174;6.368;2023-05-25T09:40:03;178.77;;;165.30;;
51838;SDS011;37886;53.174;6.368;2023-05-25T09:42:33;167.20;;;154.38;;
51838;SDS011;37886;53.174;6.368;2023-05-25T09:44:59;160.63;;;148.35;;
51838;SDS011;37886;53.174;6.368;2023-05-25T09:47:26;154.88;;;142.82;;
51838;SDS011;37886;53.174;6.368;2023-05-25T09:49:52;148.15;;;136.23;;
51838;SDS011;37886;53.174;6.368;2023-05-25T09:52:18;175.82;;;162.05;;
51838;SDS011;37886;53.174;6.368;2023-05-25T09:54:46;153.52;;;142.00;;
51838;SDS011;37886;53.174;6.368;2023-05-25T09:57:12;139.48;;;128.70;;
51838;SDS011;37886;53.174;6.368;2023-05-25T09:59:40;142.27;;;131.48;;
51838;SDS011;37886;53.174;6.368;2023-05-25T10:02:06;172.35;;;159.57;;
51838;SDS011;37886;53.174;6.368;2023-05-25T10:04:32;168.82;;;156.25;;
51838;SDS011;37886;53.174;6.368;2023-05-25T10:06:59;191.80;;;176.98;;
51838;SDS011;37886;53.174;6.368;2023-05-25T10:09:26;136.02;;;125.32;;
51838;SDS011;37886;53.174;6.368;2023-05-25T10:11:53;148.27;;;136.45;;
51838;SDS011;37886;53.174;6.368;2023-05-25T10:14:22;141.00;;;129.00;;
51838;SDS011;37886;53.174;6.368;2023-05-25T10:16:52;178.88;;;164.48;;
51838;SDS011;37886;53.174;6.368;2023-05-25T10:19:24;178.93;;;165.77;;
51838;SDS011;37886;53.174;6.368;2023-05-25T10:22:00;151.55;;;139.25;;
51838;SDS011;37886;53.174;6.368;2023-05-25T10:27:09;139.07;;;127.72;;
51838;SDS011;37886;53.174;6.368;2023-05-25T10:29:46;80.63;;;73.47;;
51838;SDS011;37886;53.174;6.368;2023-05-25T10:32:14;97.78;;;89.10;;
51838;SDS011;37886;53.174;6.368;2023-05-25T10:34:41;107.70;;;97.50;;
51838;SDS011;37886;53.174;6.368;2023-05-25T10:37:07;92.38;;;83.25;;
51838;SDS011;37886;53.174;6.368;2023-05-25T10:39:33;96.57;;;87.68;;
51838;SDS011;37886;53.174;6.368;2023-05-25T10:42:00;100.20;;;91.35;;
51838;SDS011;37886;53.174;6.368;2023-05-25T10:44:28;119.40;;;109.60;;
51838;SDS011;37886;53.174;6.368;2023-05-25T10:46:55;93.85;;;85.90;;
51838;SDS011;37886;53.174;6.368;2023-05-25T10:49:25;93.70;;;85.70;;
51838;SDS011;37886;53.174;6.368;2023-05-25T10:52:10;81.75;;;73.90;;
51838;SDS011;37886;53.174;6.368;2023-05-25T10:54:36;60.08;;;54.25;;
51838;SDS011;37886;53.174;6.368;2023-05-25T10:57:07;41.10;;;31.58;;
51838;SDS011;37886;53.174;6.368;2023-05-25T10:59:41;58.92;;;53.10;;
51838;SDS011;37886;53.174;6.368;2023-05-25T11:02:09;80.85;;;73.78;;
51838;SDS011;37886;53.174;6.368;2023-05-25T11:04:35;62.13;;;56.10;;
51838;SDS011;37886;53.174;6.368;2023-05-25T11:09:27;57.30;;;51.80;;
51838;SDS011;37886;53.174;6.368;2023-05-25T11:19:44;65.88;;;58.83;;
51838;SDS011;37886;53.174;6.368;2023-05-25T11:22:15;78.65;;;71.63;;
51838;SDS011;37886;53.174;6.368;2023-05-25T11:24:45;77.70;;;70.32;;
51838;SDS011;37886;53.174;6.368;2023-05-25T11:27:11;77.07;;;69.68;;
51838;SDS011;37886;53.174;6.368;2023-05-25T11:29:38;56.20;;;50.60;;
51838;SDS011;37886;53.174;6.368;2023-05-25T11:32:10;62.03;;;56.10;;
51838;SDS011;37886;53.174;6.368;2023-05-25T11:34:40;55.42;;;49.90;;
51838;SDS011;37886;53.174;6.368;2023-05-25T11:37:10;56.25;;;50.65;;
51838;SDS011;37886;53.174;6.368;2023-05-25T11:39:38;89.28;;;80.35;;
51838;SDS011;37886;53.174;6.368;2023-05-25T11:42:04;66.38;;;59.75;;
51838;SDS011;37886;53.174;6.368;2023-05-25T11:44:34;66.10;;;59.65;;
51838;SDS011;37886;53.174;6.368;2023-05-25T11:47:01;81.18;;;73.60;;
51838;SDS011;37886;53.174;6.368;2023-05-25T11:49:29;119.75;;;109.40;;
51838;SDS011;37886;53.174;6.368;2023-05-25T11:51:55;148.85;;;136.88;;
51838;SDS011;37886;53.174;6.368;2023-05-25T11:54:27;136.55;;;124.93;;
51838;SDS011;37886;53.174;6.368;2023-05-25T11:56:54;124.75;;;113.65;;
51838;SDS011;37886;53.174;6.368;2023-05-25T11:59:26;135.63;;;124.90;;
51838;SDS011;37886;53.174;6.368;2023-05-25T12:01:59;123.15;;;113.30;;
51838;SDS011;37886;53.174;6.368;2023-05-25T12:04:26;136.23;;;123.63;;
51838;SDS011;37886;53.174;6.368;2023-05-25T12:07:00;146.05;;;132.98;;
51838;SDS011;37886;53.174;6.368;2023-05-25T12:09:29;150.27;;;137.43;;
51838;SDS011;37886;53.174;6.368;2023-05-25T12:11:55;141.32;;;129.90;;
51838;SDS011;37886;53.174;6.368;2023-05-25T12:14:21;112.55;;;102.57;;
51838;SDS011;37886;53.174;6.368;2023-05-25T12:16:48;123.05;;;111.70;;
51838;SDS011;37886;53.174;6.368;2023-05-25T12:19:14;142.23;;;129.85;;
51838;SDS011;37886;53.174;6.368;2023-05-25T12:21:41;60.33;;;53.70;;
51838;SDS011;37886;53.174;6.368;2023-05-25T12:24:07;85.00;;;76.97;;
51838;SDS011;37886;53.174;6.368;2023-05-25T12:26:45;103.18;;;93.10;;
51838;SDS011;37886;53.174;6.368;2023-05-25T12:29:15;131.20;;;120.20;;
51838;SDS011;37886;53.174;6.368;2023-05-25T12:31:41;100.22;;;90.95;;
51838;SDS011;37886;53.174;6.368;2023-05-25T12:34:11;122.25;;;111.25;;
51838;SDS011;37886;53.174;6.368;2023-05-25T12:39:11;111.13;;;101.47;;
51838;SDS011;37886;53.174;6.368;2023-05-25T12:41:51;126.85;;;116.38;;
51838;SDS011;37886;53.174;6.368;2023-05-25T12:44:25;108.95;;;100.55;;
51838;SDS011;37886;53.174;6.368;2023-05-25T12:47:17;109.82;;;100.57;;
51838;SDS011;37886;53.174;6.368;2023-05-25T12:49:47;110.05;;;101.50;;
51838;SDS011;37886;53.174;6.368;2023-05-25T12:52:30;143.35;;;132.38;;
51838;SDS011;37886;53.174;6.368;2023-05-25T12:54:58;167.27;;;153.80;;
51838;SDS011;37886;53.174;6.368;2023-05-25T12:57:42;181.80;;;167.25;;
51838;SDS011;37886;53.174;6.368;2023-05-25T13:00:08;181.15;;;166.75;;
51838;SDS011;37886;53.174;6.368;2023-05-25T13:02:34;162.98;;;149.80;;
51838;SDS011;37886;53.174;6.368;2023-05-25T13:05:00;153.80;;;141.52;;
51838;SDS011;37886;53.174;6.368;2023-05-25T13:07:26;171.00;;;157.27;;
51838;SDS011;37886;53.174;6.368;2023-05-25T13:09:52;131.15;;;120.40;;
51838;SDS011;37886;53.174;6.368;2023-05-25T13:12:17;162.68;;;149.65;;
51838;SDS011;37886;53.174;6.368;2023-05-25T13:14:44;159.30;;;146.57;;
51838;SDS011;37886;53.174;6.368;2023-05-25T13:17:31;173.43;;;159.55;;
51838;SDS011;37886;53.174;6.368;2023-05-25T13:19:56;180.38;;;166.05;;
51838;SDS011;37886;53.174;6.368;2023-05-25T13:22:22;153.23;;;140.93;;
51838;SDS011;37886;53.174;6.368;2023-05-25T13:24:48;177.05;;;163.18;;
51838;SDS011;37886;53.174;6.368;2023-05-25T13:27:13;173.98;;;158.85;;
51838;SDS011;37886;53.174;6.368;2023-05-25T13:29:39;189.52;;;174.50;;
51838;SDS011;37886;53.174;6.368;2023-05-25T13:32:05;185.70;;;170.90;;
51838;SDS011;37886;53.174;6.368;2023-05-25T13:34:31;169.13;;;155.30;;
51838;SDS011;37886;53.174;6.368;2023-05-25T13:36:57;179.32;;;164.98;;
51838;SDS011;37886;53.174;6.368;2023-05-25T13:39:24;166.38;;;152.57;;
51838;SDS011;37886;53.174;6.368;2023-05-25T13:41:49;201.65;;;184.52;;
51838;SDS011;37886;53.174;6.368;2023-05-25T13:44:15;180.43;;;166.00;;
51838;SDS011;37886;53.174;6.368;2023-05-25T13:46:41;213.82;;;195.00;;
51838;SDS011;37886;53.174;6.368;2023-05-25T13:49:06;156.13;;;143.52;;
51838;SDS011;37886;53.174;6.368;2023-05-25T13:51:32;137.10;;;125.70;;
51838;SDS011;37886;53.174;6.368;2023-05-25T13:54:00;128.23;;;118.25;;
51838;SDS011;37886;53.174;6.368;2023-05-25T13:56:26;152.00;;;139.88;;
51838;SDS011;37886;53.174;6.368;2023-05-25T13:58:52;146.55;;;134.35;;
51838;SDS011;37886;53.174;6.368;2023-05-25T14:01:18;140.95;;;129.20;;
51838;SDS011;37886;53.174;6.368;2023-05-25T14:03:44;139.27;;;127.55;;
51838;SDS011;37886;53.174;6.368;2023-05-25T14:06:10;168.98;;;155.13;;
51838;SDS011;37886;53.174;6.368;2023-05-25T14:08:36;132.15;;;121.10;;
51838;SDS011;37886;53.174;6.368;2023-05-25T14:11:02;119.00;;;109.22;;
51838;SDS011;37886;53.174;6.368;2023-05-25T14:13:28;145.45;;;133.35;;
51838;SDS011;37886;53.174;6.368;2023-05-25T14:15:54;158.00;;;144.23;;
51838;SDS011;37886;53.174;6.368;2023-05-25T14:18:19;173.13;;;159.05;;
51838;SDS011;37886;53.174;6.368;2023-05-25T14:20:45;172.45;;;157.75;;
51838;SDS011;37886;53.174;6.368;2023-05-25T14:23:11;146.90;;;134.80;;
51838;SDS011;37886;53.174;6.368;2023-05-25T14:25:37;159.85;;;147.45;;
51838;SDS011;37886;53.174;6.368;2023-05-25T14:28:02;175.02;;;160.40;;
51838;SDS011;37886;53.174;6.368;2023-05-25T14:30:28;192.27;;;176.25;;
51838;SDS011;37886;53.174;6.368;2023-05-25T14:32:54;205.88;;;188.95;;
51838;SDS011;37886;53.174;6.368;2023-05-25T14:35:19;199.20;;;182.68;;
51838;SDS011;37886;53.174;6.368;2023-05-25T14:37:45;180.25;;;165.15;;